createdAt,value
2023-07-16T00:00:05.180Z,100051.28
2023-07-16T00:00:18.007Z,100048.88
2023-07-16T00:00:35.086Z,100055.13
2023-07-16T00:00:50.847Z,100046.94
2023-07-16T00:01:02.736Z,100048.03
2023-07-16T00:01:14.459Z,100047.22
2023-07-16T00:01:26.298Z,100056.53
2023-07-16T00:01:38.067Z,100047.22
2023-07-16T00:01:49.895Z,100045.59
2023-07-16T00:02:01.727Z,100052.16
2023-07-16T00:02:13.584Z,100052.16
2023-07-16T00:02:25.435Z,100047.00
2023-07-16T00:02:38.494Z,100053.25
2023-07-16T00:02:50.364Z,100047.81
2023-07-16T00:03:02.181Z,100056.28
2023-07-16T00:03:13.989Z,100057.91
2023-07-16T00:03:25.775Z,100050.81
2023-07-16T00:03:37.505Z,100056.28
2023-07-16T00:03:49.296Z,100057.38
2023-07-16T00:04:01.113Z,100058.19
2023-07-16T00:04:12.966Z,100048.66
2023-07-16T00:04:24.806Z,100054.66
2023-07-16T00:04:36.631Z,100054.94
2023-07-16T00:04:48.470Z,100053.00
2023-07-16T00:05:00.270Z,100057.66
2023-07-16T00:05:12.240Z,100056.03
2023-07-16T00:05:23.988Z,100061.50
2023-07-16T00:05:37.754Z,100057.66
2023-07-16T00:05:50.955Z,100053.31
2023-07-16T00:06:02.660Z,100054.94
2023-07-16T00:06:14.515Z,100057.66
2023-07-16T00:06:26.482Z,100056.84
2023-07-16T00:06:38.285Z,100059.59
2023-07-16T00:06:50.098Z,100057.66
2023-07-16T00:07:01.899Z,100061.50
2023-07-16T00:07:13.626Z,100061.50
2023-07-16T00:07:25.406Z,100056.84
2023-07-16T00:07:37.168Z,100059.84
2023-07-16T00:07:48.942Z,100058.78
2023-07-16T00:08:00.662Z,100057.94
2023-07-16T00:08:12.396Z,100053.59
2023-07-16T00:08:24.255Z,100056.31
2023-07-16T00:08:36.023Z,100060.97
2023-07-16T00:08:47.795Z,100053.88
2023-07-16T00:09:00.844Z,100060.13
2023-07-16T00:09:12.563Z,100062.06
2023-07-16T00:09:24.309Z,100057.72
2023-07-16T00:09:36.022Z,100063.97
2023-07-16T00:09:47.765Z,100057.72
2023-07-16T00:09:59.566Z,100053.34
2023-07-16T00:10:11.648Z,100065.09
2023-07-16T00:10:23.422Z,100059.63
2023-07-16T00:10:36.241Z,100059.63
2023-07-16T00:10:48.072Z,100057.97
2023-07-16T00:10:59.804Z,100059.63
2023-07-16T00:11:11.561Z,100061.53
2023-07-16T00:11:23.315Z,100051.72
2023-07-16T00:11:35.059Z,100055.25
2023-07-16T00:11:46.784Z,100058.25
2023-07-16T00:11:58.554Z,100060.19
2023-07-16T00:12:10.307Z,100057.44
2023-07-16T00:12:22.063Z,100056.91
2023-07-16T00:12:33.834Z,100054.19
2023-07-16T00:12:45.666Z,100059.66
2023-07-16T00:12:57.354Z,100056.91
2023-07-16T00:13:09.202Z,100061.56
2023-07-16T00:13:20.964Z,100061.56
2023-07-16T00:13:32.714Z,100055.31
2023-07-16T00:13:44.484Z,100062.69
2023-07-16T00:13:56.242Z,100062.16
2023-07-16T00:14:08.164Z,100061.84
2023-07-16T00:14:20.000Z,100059.97
2023-07-16T00:14:31.805Z,100058.31
2023-07-16T00:14:43.487Z,100054.78
2023-07-16T00:14:55.204Z,100057.50
2023-07-16T00:15:08.276Z,100059.41
2023-07-16T00:15:20.021Z,100062.97
2023-07-16T00:15:31.850Z,100059.69
2023-07-16T00:15:43.532Z,100064.06
2023-07-16T00:15:56.589Z,100062.44
2023-07-16T00:16:08.381Z,100053.44
2023-07-16T00:16:20.199Z,100056.16
2023-07-16T00:16:32.056Z,100062.44
2023-07-16T00:16:43.893Z,100056.16
2023-07-16T00:16:55.849Z,100052.63
2023-07-16T00:17:07.737Z,100051.78
2023-07-16T00:17:19.496Z,100054.25
2023-07-16T00:17:31.241Z,100053.44
2023-07-16T00:17:42.953Z,100056.97
2023-07-16T00:17:54.693Z,100060.50
2023-07-16T00:18:06.480Z,100057.78
2023-07-16T00:18:18.312Z,100059.97
2023-07-16T00:18:30.009Z,100055.34
2023-07-16T00:18:42.614Z,100057.25
2023-07-16T00:18:54.375Z,100058.09
2023-07-16T00:19:06.081Z,100058.34
2023-07-16T00:19:20.658Z,100058.34
2023-07-16T00:19:32.450Z,100057.56
2023-07-16T00:19:44.148Z,100052.09
2023-07-16T00:19:55.891Z,100050.16
2023-07-16T00:20:09.029Z,100051.28
2023-07-16T00:20:20.897Z,100054.00
2023-07-16T00:20:32.670Z,100056.75
2023-07-16T00:20:44.451Z,100054.00
2023-07-16T00:20:56.143Z,100055.91
2023-07-16T00:21:07.848Z,100053.16
2023-07-16T00:21:19.566Z,100053.47
2023-07-16T00:21:31.375Z,100056.22
2023-07-16T00:21:43.073Z,100050.75
2023-07-16T00:21:54.864Z,100057.00
2023-07-16T00:22:06.615Z,100049.91
2023-07-16T00:22:18.354Z,100052.38
2023-07-16T00:22:30.104Z,100057.81
2023-07-16T00:22:41.980Z,100050.75
2023-07-16T00:22:55.776Z,100056.22
2023-07-16T00:23:07.596Z,100056.22
2023-07-16T00:23:19.390Z,100057.28
2023-07-16T00:23:31.080Z,100061.66
2023-07-16T00:23:42.896Z,100051.03
2023-07-16T00:23:54.630Z,100058.09
2023-07-16T00:24:06.586Z,100055.13
2023-07-16T00:24:18.377Z,100057.56
2023-07-16T00:24:30.094Z,100053.22
2023-07-16T00:24:41.803Z,100050.50
2023-07-16T00:24:53.544Z,100054.34
2023-07-16T00:25:06.636Z,100059.47
2023-07-16T00:25:18.505Z,100063.31
2023-07-16T00:25:30.263Z,100055.13
2023-07-16T00:25:41.953Z,100064.13
2023-07-16T00:25:53.786Z,100060.59
2023-07-16T00:26:05.532Z,100061.69
2023-07-16T00:26:18.071Z,100059.78
2023-07-16T00:26:30.003Z,100057.88
2023-07-16T00:26:41.775Z,100063.31
2023-07-16T00:26:54.434Z,100063.03
2023-07-16T00:27:06.246Z,100058.94
2023-07-16T00:27:18.023Z,100061.41
2023-07-16T00:27:29.803Z,100056.22
2023-07-16T00:27:41.499Z,100059.47
2023-07-16T00:27:54.161Z,100061.41
2023-07-16T00:28:05.897Z,100058.94
2023-07-16T00:28:17.621Z,100061.69
2023-07-16T00:28:29.305Z,100057.06
2023-07-16T00:28:41.071Z,100058.94
2023-07-16T00:28:52.839Z,100056.53
2023-07-16T00:29:04.669Z,100065.25
2023-07-16T00:29:17.421Z,100057.06
2023-07-16T00:29:29.203Z,100054.59
2023-07-16T00:29:40.917Z,100069.06
2023-07-16T00:29:52.658Z,100058.13
2023-07-16T00:30:05.305Z,100047.81
2023-07-16T00:30:17.189Z,100061.97
2023-07-16T00:30:28.954Z,100055.69
2023-07-16T00:30:40.862Z,100053.53
2023-07-16T00:30:53.209Z,100060.34
2023-07-16T00:31:06.426Z,100057.91
2023-07-16T00:31:18.247Z,100047.00
2023-07-16T00:31:30.032Z,100055.19
2023-07-16T00:31:41.823Z,100055.19
2023-07-16T00:31:53.570Z,100061.72
2023-07-16T00:32:05.934Z,100059.00
2023-07-16T00:32:17.706Z,100055.47
2023-07-16T00:32:29.484Z,100059.25
2023-07-16T00:32:41.315Z,100045.63
2023-07-16T00:32:53.183Z,100048.94
2023-07-16T00:33:04.998Z,100055.72
2023-07-16T00:33:16.767Z,100057.66
2023-07-16T00:33:28.503Z,100056.03
2023-07-16T00:33:40.300Z,100052.47
2023-07-16T00:33:52.266Z,100055.50
2023-07-16T00:34:04.004Z,100050.84
2023-07-16T00:34:15.867Z,100056.31
2023-07-16T00:34:27.648Z,100055.50
2023-07-16T00:34:39.423Z,100057.38
2023-07-16T00:34:51.738Z,100053.84
2023-07-16T00:35:03.936Z,100056.59
2023-07-16T00:35:15.826Z,100049.50
2023-07-16T00:35:27.611Z,100052.25
2023-07-16T00:35:39.346Z,100051.44
2023-07-16T00:35:51.557Z,100047.88
2023-07-16T00:36:03.370Z,100053.31
2023-07-16T00:36:15.312Z,100052.50
2023-07-16T00:36:27.398Z,100055.25
2023-07-16T00:36:39.144Z,100047.88
2023-07-16T00:36:51.259Z,100047.06
2023-07-16T00:37:03.249Z,100048.97
2023-07-16T00:37:15.143Z,100042.72
2023-07-16T00:37:26.901Z,100047.31
2023-07-16T00:37:38.633Z,100037.53
2023-07-16T00:37:52.542Z,100049.56
2023-07-16T00:38:04.276Z,100045.72
2023-07-16T00:38:16.106Z,100053.09
2023-07-16T00:38:27.820Z,100053.09
2023-07-16T00:38:39.556Z,100042.19
2023-07-16T00:38:52.209Z,100045.19
2023-07-16T00:39:04.120Z,100045.19
2023-07-16T00:39:15.907Z,100051.75
2023-07-16T00:39:27.639Z,100045.19
2023-07-16T00:39:39.411Z,100041.66
2023-07-16T00:39:51.138Z,100043.56
2023-07-16T00:40:03.253Z,100047.91
2023-07-16T00:40:15.096Z,100046.28
2023-07-16T00:40:26.930Z,100049.81
2023-07-16T00:40:38.654Z,100052.56
2023-07-16T00:40:50.517Z,100050.63
2023-07-16T00:41:02.328Z,100055.28
2023-07-16T00:41:14.516Z,100049.03
2023-07-16T00:41:26.342Z,100059.09
2023-07-16T00:41:38.101Z,100051.75
2023-07-16T00:41:49.820Z,100048.19
2023-07-16T00:42:01.528Z,100053.63
2023-07-16T00:42:13.265Z,100051.22
2023-07-16T00:42:24.979Z,100055.56
2023-07-16T00:42:37.098Z,100061.81
2023-07-16T00:42:48.848Z,100050.91
2023-07-16T00:43:00.579Z,100053.63
2023-07-16T00:43:12.335Z,100057.19
2023-07-16T00:43:24.065Z,100047.09
2023-07-16T00:43:35.775Z,100054.75
2023-07-16T00:43:47.624Z,100050.38
2023-07-16T00:43:59.404Z,100052.03
2023-07-16T00:44:11.163Z,100050.91
2023-07-16T00:44:23.185Z,100048.19
2023-07-16T00:44:34.976Z,100055.81
2023-07-16T00:44:46.787Z,100054.75
2023-07-16T00:44:58.537Z,100051.47
2023-07-16T00:45:13.427Z,100050.69
2023-07-16T00:45:25.209Z,100052.28
2023-07-16T00:45:38.104Z,100051.47
2023-07-16T00:45:50.815Z,100047.13
2023-07-16T00:46:03.098Z,100055.31
2023-07-16T00:46:17.107Z,100050.69
2023-07-16T00:46:29.838Z,100051.75
2023-07-16T00:46:41.742Z,100050.94
2023-07-16T00:46:53.787Z,100048.22
2023-07-16T00:47:05.679Z,100048.22
2023-07-16T00:47:17.633Z,100050.94
2023-07-16T00:47:29.577Z,100050.94
2023-07-16T00:47:43.194Z,100049.34
2023-07-16T00:47:55.154Z,100050.13
2023-07-16T00:48:07.907Z,100048.50
2023-07-16T00:48:20.688Z,100048.50
2023-07-16T00:48:32.551Z,100047.69
2023-07-16T00:48:45.804Z,100049.84
2023-07-16T00:48:57.724Z,100053.13
2023-07-16T00:49:09.588Z,100051.53
2023-07-16T00:49:21.503Z,100056.97
2023-07-16T00:49:33.388Z,100044.38
2023-07-16T00:49:45.269Z,100048.22
2023-07-16T00:49:57.964Z,100056.41
2023-07-16T00:50:11.290Z,100046.59
2023-07-16T00:50:23.110Z,100051.22
2023-07-16T00:50:35.958Z,100048.81
2023-07-16T00:50:47.818Z,100049.63
2023-07-16T00:51:02.630Z,100051.53
2023-07-16T00:51:14.838Z,100054.25
2023-07-16T00:51:27.245Z,100049.34
2023-07-16T00:51:39.094Z,100046.34
2023-07-16T00:51:53.054Z,100043.91
2023-07-16T00:52:06.638Z,100052.06
2023-07-16T00:52:20.107Z,100048.53
2023-07-16T00:52:31.900Z,100050.47
2023-07-16T00:52:43.674Z,100055.91
2023-07-16T00:52:55.480Z,100051.53
2023-07-16T00:53:07.823Z,100048.81
2023-07-16T00:53:20.606Z,100052.38
2023-07-16T00:53:32.893Z,100043.66
2023-07-16T00:53:45.770Z,100047.19
2023-07-16T00:53:57.526Z,100048.28
2023-07-16T00:54:09.481Z,100048.81
2023-07-16T00:54:21.675Z,100044.47
2023-07-16T00:54:33.790Z,100051.00
2023-07-16T00:54:46.378Z,100042.81
2023-07-16T00:54:58.164Z,100041.75
2023-07-16T00:55:10.883Z,100045.53
2023-07-16T00:55:22.647Z,100047.19
2023-07-16T00:55:34.986Z,100051.00
2023-07-16T00:55:47.080Z,100043.13
2023-07-16T00:55:58.879Z,100046.66
2023-07-16T00:56:11.747Z,100039.28
2023-07-16T00:56:23.654Z,100046.66
2023-07-16T00:56:38.106Z,100049.38
2023-07-16T00:56:49.935Z,100043.13
2023-07-16T00:57:01.771Z,100042.31
2023-07-16T00:57:13.536Z,100040.41
2023-07-16T00:57:25.850Z,100051.56
2023-07-16T00:57:37.938Z,100042.59
2023-07-16T00:57:49.694Z,100040.13
2023-07-16T00:58:08.413Z,100047.22
2023-07-16T00:58:20.186Z,100045.31
2023-07-16T00:58:31.970Z,100040.13
2023-07-16T00:58:43.668Z,100039.31
2023-07-16T00:58:55.486Z,100039.31
2023-07-16T00:59:07.243Z,100041.25
2023-07-16T00:59:18.973Z,100038.50
2023-07-16T00:59:31.350Z,100043.97
2023-07-16T00:59:44.198Z,100039.06
2023-07-16T00:59:56.054Z,100034.44
2023-07-16T01:00:10.200Z,100039.91
2023-07-16T01:00:22.016Z,100040.97
2023-07-16T01:00:34.232Z,100037.44
2023-07-16T01:00:46.088Z,100036.63
2023-07-16T01:00:57.814Z,100040.16
2023-07-16T01:01:09.583Z,100040.16
2023-07-16T01:01:22.758Z,100042.09
2023-07-16T01:01:34.548Z,100041.25
2023-07-16T01:01:46.376Z,100041.25
2023-07-16T01:01:59.505Z,100043.97
2023-07-16T01:02:11.551Z,100034.19
2023-07-16T01:02:23.493Z,100038.00
2023-07-16T01:02:35.353Z,100038.00
2023-07-16T01:02:47.135Z,100035.56
2023-07-16T01:02:59.548Z,100037.47
2023-07-16T01:03:13.752Z,100038.28
2023-07-16T01:03:25.761Z,100033.09
2023-07-16T01:03:38.089Z,100037.75
2023-07-16T01:03:49.961Z,100029.56
2023-07-16T01:04:01.783Z,100036.63
2023-07-16T01:04:13.760Z,100035.81
2023-07-16T01:04:25.584Z,100038.56
2023-07-16T01:04:37.495Z,100034.22
2023-07-16T01:04:49.440Z,100039.66
2023-07-16T01:05:01.497Z,100038.84
2023-07-16T01:05:13.380Z,100035.28
2023-07-16T01:05:31.891Z,100029.84
2023-07-16T01:05:50.159Z,100032.03
2023-07-16T01:06:11.282Z,100030.13
2023-07-16T01:06:30.729Z,100034.75
2023-07-16T01:06:47.209Z,100036.41
2023-07-16T01:07:05.657Z,100031.22
2023-07-16T01:07:19.369Z,100033.13
2023-07-16T01:07:32.360Z,100027.69
2023-07-16T01:07:56.503Z,100032.03
2023-07-16T01:08:10.790Z,100031.22
2023-07-16T01:08:31.548Z,100031.22
2023-07-16T01:08:47.994Z,100030.41
2023-07-16T01:09:07.686Z,100031.22
2023-07-16T01:09:20.484Z,100024.16
2023-07-16T01:09:33.252Z,100024.97
2023-07-16T01:09:45.893Z,100026.06
2023-07-16T01:09:58.898Z,100024.69
2023-07-16T01:10:11.253Z,100028.78
2023-07-16T01:10:24.889Z,100033.13
2023-07-16T01:10:37.497Z,100028.78
2023-07-16T01:10:50.392Z,100026.06
2023-07-16T01:11:06.757Z,100023.34
2023-07-16T01:11:20.136Z,100022.50
2023-07-16T01:11:33.730Z,100022.50
2023-07-16T01:11:46.660Z,100028.78
2023-07-16T01:12:01.344Z,100027.16
2023-07-16T01:12:14.614Z,100018.16
2023-07-16T01:12:28.020Z,100027.16
2023-07-16T01:12:40.245Z,100029.88
2023-07-16T01:12:53.954Z,100023.63
2023-07-16T01:13:05.914Z,100019.78
2023-07-16T01:13:17.940Z,100027.97
2023-07-16T01:13:30.251Z,100026.34
2023-07-16T01:13:42.124Z,100021.97
2023-07-16T01:13:55.050Z,100030.97
2023-07-16T01:14:07.918Z,100021.97
2023-07-16T01:14:20.340Z,100031.53
2023-07-16T01:14:32.706Z,100029.34
2023-07-16T01:14:44.707Z,100020.34
2023-07-16T01:14:57.808Z,100026.88
2023-07-16T01:15:10.314Z,100026.88
2023-07-16T01:15:25.115Z,100024.44
2023-07-16T01:15:37.016Z,100031.53
2023-07-16T01:15:48.856Z,100025.25
2023-07-16T01:16:00.693Z,100035.34
2023-07-16T01:16:20.197Z,100027.19
2023-07-16T01:16:33.589Z,100032.63
2023-07-16T01:16:45.532Z,100031.28
2023-07-16T01:16:57.439Z,100032.63
2023-07-16T01:17:09.221Z,100038.88
2023-07-16T01:17:20.978Z,100033.72
2023-07-16T01:17:32.795Z,100033.72
2023-07-16T01:17:44.958Z,100027.44
2023-07-16T01:17:56.816Z,100030.97
2023-07-16T01:18:08.694Z,100030.97
2023-07-16T01:18:20.465Z,100030.19
2023-07-16T01:18:32.246Z,100036.44
2023-07-16T01:18:43.976Z,100029.38
2023-07-16T01:18:55.838Z,100032.91
2023-07-16T01:19:08.761Z,100034.81
2023-07-16T01:19:20.531Z,100031.28
2023-07-16T01:19:32.282Z,100035.91
2023-07-16T01:19:43.960Z,100034.81
2023-07-16T01:19:55.698Z,100028.81
2023-07-16T01:20:08.871Z,100030.44
2023-07-16T01:20:20.684Z,100034.28
2023-07-16T01:20:32.471Z,100026.91
2023-07-16T01:20:44.269Z,100026.38
2023-07-16T01:20:56.095Z,100026.09
2023-07-16T01:21:07.988Z,100028.81
2023-07-16T01:21:22.335Z,100033.75
2023-07-16T01:21:40.865Z,100026.38
2023-07-16T01:22:11.630Z,100026.69
2023-07-16T01:22:36.808Z,100028.28
2023-07-16T01:23:09.394Z,100027.75
2023-07-16T01:23:35.099Z,100027.75
2023-07-16T01:24:04.674Z,100027.75
2023-07-16T01:24:49.556Z,100021.22
2023-07-16T01:25:10.705Z,100020.97
2023-07-16T01:25:37.468Z,100026.41
2023-07-16T01:26:06.397Z,100025.88
2023-07-16T01:26:33.718Z,100026.41
2023-07-16T01:27:14.216Z,100032.13
2023-07-16T01:27:45.577Z,100026.97
2023-07-16T01:28:12.963Z,100025.31
2023-07-16T01:28:49.464Z,100029.97
2023-07-16T01:29:28.697Z,100031.06
2023-07-16T01:29:45.276Z,100028.34
2023-07-16T01:29:59.651Z,100029.44
2023-07-16T01:30:15.738Z,100027.50
2023-07-16T01:30:28.602Z,100028.63
2023-07-16T01:30:44.956Z,100029.44
2023-07-16T01:30:59.738Z,100026.69
2023-07-16T01:31:12.231Z,100023.97
2023-07-16T01:31:26.061Z,100028.34
2023-07-16T01:31:38.770Z,100026.69
2023-07-16T01:31:52.155Z,100030.22
2023-07-16T01:32:05.423Z,100026.69
2023-07-16T01:32:18.117Z,100030.22
2023-07-16T01:32:32.038Z,100026.44
2023-07-16T01:32:47.512Z,100032.16
2023-07-16T01:33:00.100Z,100029.44
2023-07-16T01:33:17.788Z,100027.50
2023-07-16T01:33:30.581Z,100023.97
2023-07-16T01:33:43.533Z,100030.22
2023-07-16T01:34:00.049Z,100023.16
2023-07-16T01:34:12.387Z,100023.97
2023-07-16T01:34:27.607Z,100024.28
2023-07-16T01:34:40.393Z,100023.97
2023-07-16T01:34:54.377Z,100023.97
2023-07-16T01:35:07.090Z,100031.34
2023-07-16T01:35:19.362Z,100030.53
2023-07-16T01:35:31.283Z,100028.63
2023-07-16T01:35:44.137Z,100025.91
2023-07-16T01:35:57.321Z,100024.28
2023-07-16T01:36:09.355Z,100023.44
2023-07-16T01:36:22.480Z,100029.72
2023-07-16T01:36:36.504Z,100031.59
2023-07-16T01:36:49.392Z,100028.88
2023-07-16T01:37:01.740Z,100023.44
2023-07-16T01:37:13.727Z,100025.34
2023-07-16T01:37:25.527Z,100031.59
2023-07-16T01:37:37.430Z,100020.72
2023-07-16T01:37:49.384Z,100030.00
2023-07-16T01:38:01.190Z,100023.44
2023-07-16T01:38:12.974Z,100027.28
2023-07-16T01:38:24.904Z,100028.88
2023-07-16T01:38:37.420Z,100030.00
2023-07-16T01:38:49.384Z,100031.91
2023-07-16T01:39:01.605Z,100023.44
2023-07-16T01:39:13.846Z,100030.00
2023-07-16T01:39:26.094Z,100025.34
2023-07-16T01:39:38.541Z,100029.72
2023-07-16T01:39:50.298Z,100024.53
2023-07-16T01:40:02.520Z,100028.06
2023-07-16T01:40:15.194Z,100025.63
2023-07-16T01:40:26.919Z,100023.75
2023-07-16T01:40:38.731Z,100019.63
2023-07-16T01:40:50.631Z,100022.91
2023-07-16T01:41:02.616Z,100033.00
2023-07-16T01:41:14.446Z,100024.81
2023-07-16T01:41:26.781Z,100021.28
2023-07-16T01:41:38.588Z,100028.34
2023-07-16T01:41:50.295Z,100026.72
2023-07-16T01:42:02.288Z,100026.72
2023-07-16T01:42:14.040Z,100022.66
2023-07-16T01:42:25.895Z,100026.72
2023-07-16T01:42:37.685Z,100025.09
2023-07-16T01:42:49.455Z,100027.00
2023-07-16T01:43:01.226Z,100021.56
2023-07-16T01:43:12.997Z,100025.09
2023-07-16T01:43:24.713Z,100020.75
2023-07-16T01:43:36.454Z,100025.38
2023-07-16T01:43:48.183Z,100031.91
2023-07-16T01:43:59.970Z,100027.28
2023-07-16T01:44:11.711Z,100016.66
2023-07-16T01:44:24.888Z,100020.19
2023-07-16T01:44:36.613Z,100023.75
2023-07-16T01:44:48.380Z,100027.56
2023-07-16T01:45:00.297Z,100025.13
2023-07-16T01:45:12.112Z,100019.66
2023-07-16T01:45:24.049Z,100022.13
2023-07-16T01:45:36.912Z,100026.75
2023-07-16T01:45:48.685Z,100022.13
2023-07-16T01:46:00.514Z,100027.56
2023-07-16T01:46:12.894Z,100020.19
2023-07-16T01:46:24.998Z,100027.84
2023-07-16T01:46:36.912Z,100022.13
2023-07-16T01:47:04.795Z,100029.47
2023-07-16T01:47:24.684Z,100020.47
2023-07-16T01:47:44.277Z,100024.84
2023-07-16T01:48:04.455Z,100020.78
2023-07-16T01:48:30.273Z,100028.66
2023-07-16T01:48:42.131Z,100026.75
2023-07-16T01:48:53.916Z,100028.66
2023-07-16T01:49:07.608Z,100031.38
2023-07-16T01:49:19.360Z,100030.56
2023-07-16T01:49:31.133Z,100024.31
2023-07-16T01:49:42.917Z,100028.66
2023-07-16T01:49:54.748Z,100019.97
2023-07-16T01:50:08.129Z,100029.47
2023-07-16T01:50:21.003Z,100024.31
2023-07-16T01:50:33.256Z,100026.22
2023-07-16T01:50:45.236Z,100030.84
2023-07-16T01:50:57.019Z,100028.94
2023-07-16T01:51:08.765Z,100028.13
2023-07-16T01:51:20.521Z,100030.03
2023-07-16T01:51:32.241Z,100029.22
2023-07-16T01:51:43.966Z,100022.16
2023-07-16T01:51:55.748Z,100032.75
2023-07-16T01:52:08.337Z,100020.50
2023-07-16T01:52:20.116Z,100025.69
2023-07-16T01:52:31.819Z,100033.84
2023-07-16T01:52:43.573Z,100023.22
2023-07-16T01:52:55.370Z,100033.31
2023-07-16T01:53:07.115Z,100025.94
2023-07-16T01:53:18.847Z,100032.19
2023-07-16T01:53:31.199Z,100030.59
2023-07-16T01:53:42.985Z,100023.53
2023-07-16T01:53:54.781Z,100025.38
2023-07-16T01:54:06.503Z,100027.28
2023-07-16T01:54:18.221Z,100028.09
2023-07-16T01:54:29.992Z,100027.28
2023-07-16T01:54:43.262Z,100027.28
2023-07-16T01:54:55.013Z,100033.84
2023-07-16T01:55:07.696Z,100029.19
2023-07-16T01:55:19.481Z,100024.84
2023-07-16T01:55:32.226Z,100026.75
2023-07-16T01:55:44.102Z,100032.19
2023-07-16T01:55:56.166Z,100021.31
2023-07-16T01:56:08.057Z,100026.75
2023-07-16T01:56:19.855Z,100032.19
2023-07-16T01:56:33.587Z,100030.28
2023-07-16T01:56:45.370Z,100031.13
2023-07-16T01:56:57.118Z,100031.38
2023-07-16T01:57:08.975Z,100030.28
2023-07-16T01:57:20.721Z,100026.75
2023-07-16T01:57:32.478Z,100031.13
2023-07-16T01:57:44.225Z,100021.03
2023-07-16T01:57:55.944Z,100027.56
2023-07-16T01:58:07.669Z,100033.00
2023-07-16T01:58:19.657Z,100031.13
2023-07-16T01:58:31.420Z,100030.28
2023-07-16T01:58:43.186Z,100030.28
2023-07-16T01:58:54.953Z,100028.66
2023-07-16T01:59:07.758Z,100033.84
2023-07-16T01:59:19.482Z,100030.28
2023-07-16T01:59:32.655Z,100030.56
2023-07-16T01:59:44.352Z,100030.03
2023-07-16T01:59:56.092Z,100034.09
2023-07-16T02:00:08.968Z,100033.31
2023-07-16T02:00:31.143Z,100035.22
2023-07-16T02:00:43.214Z,100033.31
2023-07-16T02:00:55.007Z,100031.66
2023-07-16T02:01:06.774Z,100030.84
2023-07-16T02:01:18.646Z,100034.38
2023-07-16T02:01:30.580Z,100031.66
2023-07-16T02:01:42.444Z,100030.03
2023-07-16T02:01:54.326Z,100028.94
2023-07-16T02:02:06.455Z,100033.84
2023-07-16T02:02:18.204Z,100035.47
2023-07-16T02:02:31.195Z,100031.94
2023-07-16T02:02:43.120Z,100038.22
2023-07-16T02:02:55.019Z,100030.03
2023-07-16T02:03:07.031Z,100034.94
2023-07-16T02:03:19.122Z,100036.84
2023-07-16T02:03:31.276Z,100036.56
2023-07-16T02:03:43.238Z,100035.75
2023-07-16T02:03:55.072Z,100035.75
2023-07-16T02:04:06.839Z,100038.47
2023-07-16T02:04:20.060Z,100025.41
2023-07-16T02:04:31.753Z,100034.13
2023-07-16T02:04:44.330Z,100036.03
2023-07-16T02:04:56.124Z,100031.41
2023-07-16T02:05:08.435Z,100027.03
2023-07-16T02:05:20.118Z,100027.34
2023-07-16T02:05:32.928Z,100028.41
2023-07-16T02:05:44.670Z,100029.22
2023-07-16T02:05:56.428Z,100025.69
2023-07-16T02:06:08.298Z,100034.66
2023-07-16T02:06:20.092Z,100036.59
2023-07-16T02:06:34.027Z,100026.78
2023-07-16T02:06:45.771Z,100033.06
2023-07-16T02:06:57.634Z,100025.16
2023-07-16T02:07:09.407Z,100024.06
2023-07-16T02:07:21.204Z,100025.94
2023-07-16T02:07:32.932Z,100036.84
2023-07-16T02:07:44.711Z,100029.78
2023-07-16T02:07:56.706Z,100020.81
2023-07-16T02:08:08.458Z,100021.88
2023-07-16T02:08:20.167Z,100030.88
2023-07-16T02:08:31.916Z,100030.06
2023-07-16T02:08:43.804Z,100029.25
2023-07-16T02:08:55.665Z,100029.25
2023-07-16T02:09:07.452Z,100030.06
2023-07-16T02:09:19.994Z,100031.16
2023-07-16T02:09:31.748Z,100027.31
2023-07-16T02:09:43.507Z,100021.06
2023-07-16T02:09:55.218Z,100031.69
2023-07-16T02:10:07.879Z,100032.78
2023-07-16T02:10:19.679Z,100029.25
2023-07-16T02:10:32.841Z,100031.97
2023-07-16T02:10:44.752Z,100035.50
2023-07-16T02:10:57.158Z,100037.41
2023-07-16T02:11:09.189Z,100032.78
2023-07-16T02:11:20.908Z,100030.88
2023-07-16T02:11:33.688Z,100033.06
2023-07-16T02:11:45.460Z,100040.94
2023-07-16T02:11:57.175Z,100038.50
2023-07-16T02:12:09.125Z,100034.94
2023-07-16T02:12:21.080Z,100033.06
2023-07-16T02:12:32.844Z,100027.63
2023-07-16T02:12:44.680Z,100033.34
2023-07-16T02:12:56.420Z,100032.22
2023-07-16T02:13:08.156Z,100034.16
2023-07-16T02:13:21.024Z,100029.81
2023-07-16T02:13:32.785Z,100025.16
2023-07-16T02:13:44.649Z,100024.34
2023-07-16T02:13:56.393Z,100027.09
2023-07-16T02:14:08.142Z,100026.28
2023-07-16T02:14:19.938Z,100030.88
2023-07-16T02:14:33.775Z,100033.59
2023-07-16T02:14:45.531Z,100031.97
2023-07-16T02:14:57.248Z,100027.34
2023-07-16T02:15:10.816Z,100029.53
2023-07-16T02:15:22.814Z,100025.72
2023-07-16T02:15:34.578Z,100029.25
2023-07-16T02:15:48.492Z,100022.47
2023-07-16T02:16:00.460Z,100020.28
2023-07-16T02:16:12.361Z,100024.88
2023-07-16T02:16:25.984Z,100033.34
2023-07-16T02:16:37.895Z,100027.09
2023-07-16T02:16:49.710Z,100027.91
2023-07-16T02:17:01.461Z,100018.94
2023-07-16T02:17:13.386Z,100017.28
2023-07-16T02:17:26.814Z,100020.81
2023-07-16T02:17:38.597Z,100028.97
2023-07-16T02:17:50.506Z,100020.00
2023-07-16T02:18:02.282Z,100018.38
2023-07-16T02:18:14.178Z,100027.38
2023-07-16T02:18:26.649Z,100032.00
2023-07-16T02:18:38.381Z,100023.00
2023-07-16T02:18:50.367Z,100030.09
2023-07-16T02:19:02.084Z,100030.34
2023-07-16T02:19:13.804Z,100023.00
2023-07-16T02:19:25.548Z,100020.56
2023-07-16T02:19:37.320Z,100026.00
2023-07-16T02:19:49.000Z,100030.66
2023-07-16T02:20:00.765Z,100022.50
2023-07-16T02:20:12.918Z,100020.03
2023-07-16T02:20:24.707Z,100029.81
2023-07-16T02:20:36.424Z,100028.19
2023-07-16T02:20:48.349Z,100027.09
2023-07-16T02:21:00.131Z,100021.09
2023-07-16T02:21:11.860Z,100024.13
2023-07-16T02:21:23.745Z,100026.53
2023-07-16T02:21:35.522Z,100028.47
2023-07-16T02:21:47.228Z,100026.84
2023-07-16T02:21:58.928Z,100018.69
2023-07-16T02:22:10.655Z,100021.41
2023-07-16T02:22:22.450Z,100027.66
2023-07-16T02:22:36.568Z,100022.47
2023-07-16T02:22:48.571Z,100031.44
2023-07-16T02:23:00.444Z,100027.91
2023-07-16T02:23:12.616Z,100023.56
2023-07-16T02:23:24.361Z,100032.56
2023-07-16T02:23:36.134Z,100017.31
2023-07-16T02:23:47.884Z,100020.03
2023-07-16T02:23:59.706Z,100022.78
2023-07-16T02:24:11.471Z,100018.13
2023-07-16T02:24:23.274Z,100028.47
2023-07-16T02:24:36.980Z,100026.56
2023-07-16T02:24:48.714Z,100019.22
2023-07-16T02:25:00.648Z,100025.22
2023-07-16T02:25:12.381Z,100012.97
2023-07-16T02:25:24.785Z,100019.22
2023-07-16T02:25:36.525Z,100018.41
2023-07-16T02:25:48.302Z,100016.78
2023-07-16T02:26:02.361Z,100015.13
2023-07-16T02:26:14.366Z,100024.94
2023-07-16T02:26:28.008Z,100017.84